sensor_id;sensor_type;location;lat;lon;timestamp;temperature;humidity
52963;DHT22;38827;53.024;6.596;2022-11-20T00:33:27;0.90;79.60
52963;DHT22;38827;53.024;6.596;2022-11-20T00:37:32;0.90;79.40
52963;DHT22;38827;53.024;6.596;2022-11-20T00:40:30;0.90;79.40
52963;DHT22;38827;53.024;6.596;2022-11-20T00:43:58;0.90;79.30
52963;DHT22;38827;53.024;6.596;2022-11-20T00:49:55;0.90;79.40
52963;DHT22;38827;53.024;6.596;2022-11-20T00:52:21;1.00;79.40
52963;DHT22;38827;53.024;6.596;2022-11-20T01:06:33;1.10;79.10
52963;DHT22;38827;53.024;6.596;2022-11-20T01:13:50;1.10;78.90
52963;DHT22;38827;53.024;6.596;2022-11-20T01:16:42;1.10;78.90
52963;DHT22;38827;53.024;6.596;2022-11-20T01:19:15;1.20;78.70
52963;DHT22;38827;53.024;6.596;2022-11-20T01:21:42;1.20;78.70
52963;DHT22;38827;53.024;6.596;2022-11-20T01:24:11;1.20;78.60
52963;DHT22;38827;53.024;6.596;2022-11-20T01:26:39;1.20;78.50
52963;DHT22;38827;53.024;6.596;2022-11-20T01:29:05;1.30;78.30
52963;DHT22;38827;53.024;6.596;2022-11-20T01:31:33;1.20;78.20
52963;DHT22;38827;53.024;6.596;2022-11-20T01:34:04;1.20;78.40
52963;DHT22;38827;53.024;6.596;2022-11-20T01:36:33;1.20;78.40
52963;DHT22;38827;53.024;6.596;2022-11-20T01:39:01;1.30;78.30
52963;DHT22;38827;53.024;6.596;2022-11-20T01:41:28;1.30;78.20
52963;DHT22;38827;53.024;6.596;2022-11-20T01:44:18;1.30;78.00
52963;DHT22;38827;53.024;6.596;2022-11-20T01:46:57;1.40;78.00
52963;DHT22;38827;53.024;6.596;2022-11-20T01:49:36;1.40;77.90
52963;DHT22;38827;53.024;6.596;2022-11-20T01:52:05;1.40;77.90
52963;DHT22;38827;53.024;6.596;2022-11-20T01:54:44;1.40;77.90
52963;DHT22;38827;53.024;6.596;2022-11-20T01:57:11;1.40;77.60
52963;DHT22;38827;53.024;6.596;2022-11-20T01:59:41;1.30;77.50
52963;DHT22;38827;53.024;6.596;2022-11-20T02:02:10;1.30;77.50
52963;DHT22;38827;53.024;6.596;2022-11-20T02:04:35;1.30;77.50
52963;DHT22;38827;53.024;6.596;2022-11-20T02:07:04;1.30;77.40
52963;DHT22;38827;53.024;6.596;2022-11-20T02:09:31;1.30;77.50
52963;DHT22;38827;53.024;6.596;2022-11-20T02:12:06;1.30;77.40
52963;DHT22;38827;53.024;6.596;2022-11-20T02:14:52;1.30;77.40
52963;DHT22;38827;53.024;6.596;2022-11-20T02:17:17;1.20;77.40
52963;DHT22;38827;53.024;6.596;2022-11-20T02:19:43;1.20;77.30
52963;DHT22;38827;53.024;6.596;2022-11-20T02:24:39;1.30;77.30
52963;DHT22;38827;53.024;6.596;2022-11-20T02:27:09;1.30;77.20
52963;DHT22;38827;53.024;6.596;2022-11-20T02:29:57;1.30;77.30
52963;DHT22;38827;53.024;6.596;2022-11-20T02:32:32;1.30;77.20
52963;DHT22;38827;53.024;6.596;2022-11-20T02:35:05;1.30;77.30
52963;DHT22;38827;53.024;6.596;2022-11-20T02:37:34;1.30;77.20
52963;DHT22;38827;53.024;6.596;2022-11-20T02:49:03;1.30;76.90
52963;DHT22;38827;53.024;6.596;2022-11-20T02:51:30;1.30;77.00
52963;DHT22;38827;53.024;6.596;2022-11-20T02:53:56;1.30;77.00
52963;DHT22;38827;53.024;6.596;2022-11-20T03:01:32;1.40;76.90
52963;DHT22;38827;53.024;6.596;2022-11-20T03:03:58;1.40;76.80
52963;DHT22;38827;53.024;6.596;2022-11-20T03:06:24;1.40;76.80
52963;DHT22;38827;53.024;6.596;2022-11-20T03:08:49;1.40;76.60
52963;DHT22;38827;53.024;6.596;2022-11-20T03:11:15;1.40;76.40
52963;DHT22;38827;53.024;6.596;2022-11-20T03:13:41;1.50;76.40
52963;DHT22;38827;53.024;6.596;2022-11-20T03:16:27;1.50;76.40
52963;DHT22;38827;53.024;6.596;2022-11-20T03:18:52;1.50;76.30
52963;DHT22;38827;53.024;6.596;2022-11-20T03:21:19;1.50;76.30
52963;DHT22;38827;53.024;6.596;2022-11-20T03:23:54;1.50;76.20
52963;DHT22;38827;53.024;6.596;2022-11-20T03:26:22;1.60;75.90
52963;DHT22;38827;53.024;6.596;2022-11-20T03:29:00;1.60;75.90
52963;DHT22;38827;53.024;6.596;2022-11-20T03:31:32;1.60;75.90
52963;DHT22;38827;53.024;6.596;2022-11-20T03:33:58;1.60;75.90
52963;DHT22;38827;53.024;6.596;2022-11-20T03:36:25;1.60;75.80
52963;DHT22;38827;53.024;6.596;2022-11-20T03:38:52;1.60;75.70
52963;DHT22;38827;53.024;6.596;2022-11-20T03:41:28;1.60;75.70
52963;DHT22;38827;53.024;6.596;2022-11-20T03:44:00;1.60;75.70
52963;DHT22;38827;53.024;6.596;2022-11-20T03:46:29;1.60;75.60
52963;DHT22;38827;53.024;6.596;2022-11-20T03:48:55;1.60;75.60
52963;DHT22;38827;53.024;6.596;2022-11-20T03:51:25;1.60;75.50
52963;DHT22;38827;53.024;6.596;2022-11-20T03:53:52;1.60;75.30
52963;DHT22;38827;53.024;6.596;2022-11-20T03:56:20;1.60;75.20
52963;DHT22;38827;53.024;6.596;2022-11-20T03:58:47;1.60;75.00
52963;DHT22;38827;53.024;6.596;2022-11-20T04:01:22;1.60;75.00
52963;DHT22;38827;53.024;6.596;2022-11-20T04:03:51;1.60;75.00
52963;DHT22;38827;53.024;6.596;2022-11-20T04:06:21;1.60;75.10
52963;DHT22;38827;53.024;6.596;2022-11-20T04:08:47;1.60;75.20
52963;DHT22;38827;53.024;6.596;2022-11-20T04:11:24;1.60;75.10
52963;DHT22;38827;53.024;6.596;2022-11-20T04:14:02;1.70;75.10
52963;DHT22;38827;53.024;6.596;2022-11-20T04:16:33;1.70;75.00
52963;DHT22;38827;53.024;6.596;2022-11-20T04:19:04;1.70;75.00
52963;DHT22;38827;53.024;6.596;2022-11-20T04:21:30;1.70;74.80
52963;DHT22;38827;53.024;6.596;2022-11-20T04:23:56;1.70;74.70
52963;DHT22;38827;53.024;6.596;2022-11-20T04:26:24;1.70;74.40
52963;DHT22;38827;53.024;6.596;2022-11-20T04:28:50;1.70;74.60
52963;DHT22;38827;53.024;6.596;2022-11-20T04:31:18;1.70;74.60
52963;DHT22;38827;53.024;6.596;2022-11-20T04:33:44;1.70;74.60
52963;DHT22;38827;53.024;6.596;2022-11-20T04:36:18;1.70;74.60
52963;DHT22;38827;53.024;6.596;2022-11-20T04:38:49;1.70;74.60
52963;DHT22;38827;53.024;6.596;2022-11-20T04:41:17;1.70;74.40
52963;DHT22;38827;53.024;6.596;2022-11-20T04:43:47;1.70;74.20
52963;DHT22;38827;53.024;6.596;2022-11-20T04:46:14;1.70;74.20
52963;DHT22;38827;53.024;6.596;2022-11-20T04:48:39;1.70;74.10
52963;DHT22;38827;53.024;6.596;2022-11-20T04:51:05;1.70;73.80
52963;DHT22;38827;53.024;6.596;2022-11-20T04:53:31;1.70;73.90
52963;DHT22;38827;53.024;6.596;2022-11-20T04:56:02;1.70;73.80
52963;DHT22;38827;53.024;6.596;2022-11-20T04:58:28;1.80;73.70
52963;DHT22;38827;53.024;6.596;2022-11-20T05:00:59;1.80;73.60
52963;DHT22;38827;53.024;6.596;2022-11-20T05:03:25;1.80;73.60
52963;DHT22;38827;53.024;6.596;2022-11-20T05:05:51;1.80;73.40
52963;DHT22;38827;53.024;6.596;2022-11-20T05:08:16;1.80;73.20
52963;DHT22;38827;53.024;6.596;2022-11-20T05:10:42;1.80;73.00
52963;DHT22;38827;53.024;6.596;2022-11-20T05:13:07;1.80;72.90
52963;DHT22;38827;53.024;6.596;2022-11-20T05:15:39;1.80;72.80
52963;DHT22;38827;53.024;6.596;2022-11-20T05:18:05;1.80;72.90
52963;DHT22;38827;53.024;6.596;2022-11-20T05:20:32;1.80;72.90
52963;DHT22;38827;53.024;6.596;2022-11-20T05:22:58;1.80;72.80
52963;DHT22;38827;53.024;6.596;2022-11-20T05:33:05;1.80;72.10
52963;DHT22;38827;53.024;6.596;2022-11-20T05:35:31;1.80;71.90
52963;DHT22;38827;53.024;6.596;2022-11-20T05:37:56;1.80;72.10
52963;DHT22;38827;53.024;6.596;2022-11-20T05:40:22;1.90;72.10
52963;DHT22;38827;53.024;6.596;2022-11-20T05:42:47;1.90;71.90
52963;DHT22;38827;53.024;6.596;2022-11-20T05:45:16;1.90;71.90
52963;DHT22;38827;53.024;6.596;2022-11-20T05:47:42;1.90;71.70
52963;DHT22;38827;53.024;6.596;2022-11-20T05:50:08;1.90;71.50
52963;DHT22;38827;53.024;6.596;2022-11-20T05:52:33;1.90;71.40
52963;DHT22;38827;53.024;6.596;2022-11-20T05:54:59;1.90;71.40
52963;DHT22;38827;53.024;6.596;2022-11-20T05:57:27;1.90;71.50
52963;DHT22;38827;53.024;6.596;2022-11-20T05:59:52;1.90;71.50
52963;DHT22;38827;53.024;6.596;2022-11-20T06:02:18;1.90;71.50
52963;DHT22;38827;53.024;6.596;2022-11-20T06:04:43;1.90;71.40
52963;DHT22;38827;53.024;6.596;2022-11-20T06:07:09;1.90;71.10
52963;DHT22;38827;53.024;6.596;2022-11-20T06:09:36;1.90;71.20
52963;DHT22;38827;53.024;6.596;2022-11-20T06:12:02;1.90;71.20
52963;DHT22;38827;53.024;6.596;2022-11-20T06:14:28;1.90;71.30
52963;DHT22;38827;53.024;6.596;2022-11-20T06:16:53;1.90;71.40
52963;DHT22;38827;53.024;6.596;2022-11-20T06:19:19;1.90;71.30
52963;DHT22;38827;53.024;6.596;2022-11-20T06:21:45;1.90;71.70
52963;DHT22;38827;53.024;6.596;2022-11-20T06:24:11;1.90;71.80
52963;DHT22;38827;53.024;6.596;2022-11-20T06:26:39;1.90;71.80
52963;DHT22;38827;53.024;6.596;2022-11-20T06:29:05;1.90;71.80
52963;DHT22;38827;53.024;6.596;2022-11-20T06:31:35;1.90;71.80
52963;DHT22;38827;53.024;6.596;2022-11-20T06:34:28;1.90;71.70
52963;DHT22;38827;53.024;6.596;2022-11-20T06:37:18;1.90;71.60
52963;DHT22;38827;53.024;6.596;2022-11-20T06:39:44;1.90;71.80
52963;DHT22;38827;53.024;6.596;2022-11-20T06:42:09;1.90;72.00
52963;DHT22;38827;53.024;6.596;2022-11-20T06:44:38;1.90;72.00
52963;DHT22;38827;53.024;6.596;2022-11-20T06:47:04;2.00;71.90
52963;DHT22;38827;53.024;6.596;2022-11-20T06:49:34;2.00;71.80
52963;DHT22;38827;53.024;6.596;2022-11-20T06:52:08;2.00;71.80
52963;DHT22;38827;53.024;6.596;2022-11-20T06:54:36;2.00;71.90
52963;DHT22;38827;53.024;6.596;2022-11-20T06:57:02;2.00;71.80
52963;DHT22;38827;53.024;6.596;2022-11-20T06:59:28;2.00;71.70
52963;DHT22;38827;53.024;6.596;2022-11-20T07:01:53;2.00;71.50
52963;DHT22;38827;53.024;6.596;2022-11-20T07:04:19;1.90;71.40
52963;DHT22;38827;53.024;6.596;2022-11-20T07:06:47;1.90;71.40
52963;DHT22;38827;53.024;6.596;2022-11-20T07:12:34;1.90;71.30
52963;DHT22;38827;53.024;6.596;2022-11-20T07:15:20;1.90;71.00
52963;DHT22;38827;53.024;6.596;2022-11-20T07:17:46;1.90;71.30
52963;DHT22;38827;53.024;6.596;2022-11-20T07:20:13;1.90;71.50
52963;DHT22;38827;53.024;6.596;2022-11-20T07:22:41;2.00;71.60
52963;DHT22;38827;53.024;6.596;2022-11-20T07:25:08;2.00;71.60
52963;DHT22;38827;53.024;6.596;2022-11-20T07:27:34;2.00;71.60
52963;DHT22;38827;53.024;6.596;2022-11-20T07:30:02;2.00;71.50
52963;DHT22;38827;53.024;6.596;2022-11-20T07:32:28;2.10;71.60
52963;DHT22;38827;53.024;6.596;2022-11-20T07:34:53;2.10;71.20
52963;DHT22;38827;53.024;6.596;2022-11-20T07:37:22;2.10;71.10
52963;DHT22;38827;53.024;6.596;2022-11-20T07:39:47;2.10;70.80
52963;DHT22;38827;53.024;6.596;2022-11-20T07:42:13;2.00;70.50
52963;DHT22;38827;53.024;6.596;2022-11-20T07:44:38;2.00;70.50
52963;DHT22;38827;53.024;6.596;2022-11-20T07:47:04;2.10;70.50
52963;DHT22;38827;53.024;6.596;2022-11-20T07:49:32;2.10;70.20
52963;DHT22;38827;53.024;6.596;2022-11-20T07:51:58;2.00;70.00
52963;DHT22;38827;53.024;6.596;2022-11-20T07:54:30;2.00;70.10
52963;DHT22;38827;53.024;6.596;2022-11-20T08:10:12;2.00;70.10
52963;DHT22;38827;53.024;6.596;2022-11-20T08:13:05;2.00;70.20
52963;DHT22;38827;53.024;6.596;2022-11-20T08:15:50;2.10;69.70
52963;DHT22;38827;53.024;6.596;2022-11-20T08:18:16;2.10;69.90
52963;DHT22;38827;53.024;6.596;2022-11-20T08:20:43;2.10;69.30
52963;DHT22;38827;53.024;6.596;2022-11-20T08:23:11;2.20;69.40
52963;DHT22;38827;53.024;6.596;2022-11-20T08:25:37;2.20;69.20
52963;DHT22;38827;53.024;6.596;2022-11-20T08:28:05;2.30;68.90
52963;DHT22;38827;53.024;6.596;2022-11-20T08:30:31;2.30;68.40
52963;DHT22;38827;53.024;6.596;2022-11-20T08:33:06;2.40;68.30
52963;DHT22;38827;53.024;6.596;2022-11-20T08:35:36;2.40;68.00
52963;DHT22;38827;53.024;6.596;2022-11-20T08:38:03;2.40;67.80
52963;DHT22;38827;53.024;6.596;2022-11-20T08:40:29;2.40;67.90
52963;DHT22;38827;53.024;6.596;2022-11-20T08:42:57;2.40;67.80
52963;DHT22;38827;53.024;6.596;2022-11-20T08:45:23;2.50;67.40
52963;DHT22;38827;53.024;6.596;2022-11-20T08:47:49;2.50;67.30
52963;DHT22;38827;53.024;6.596;2022-11-20T08:50:16;2.40;66.60
52963;DHT22;38827;53.024;6.596;2022-11-20T08:52:42;2.50;66.80
52963;DHT22;38827;53.024;6.596;2022-11-20T08:55:08;2.40;66.60
52963;DHT22;38827;53.024;6.596;2022-11-20T08:57:36;2.50;66.80
52963;DHT22;38827;53.024;6.596;2022-11-20T09:00:04;2.50;66.80
52963;DHT22;38827;53.024;6.596;2022-11-20T09:02:30;2.50;66.70
52963;DHT22;38827;53.024;6.596;2022-11-20T09:04:56;2.50;66.50
52963;DHT22;38827;53.024;6.596;2022-11-20T09:07:24;2.50;66.30
52963;DHT22;38827;53.024;6.596;2022-11-20T09:09:50;2.60;66.60
52963;DHT22;38827;53.024;6.596;2022-11-20T09:12:16;2.60;66.40
52963;DHT22;38827;53.024;6.596;2022-11-20T09:14:41;2.60;66.20
52963;DHT22;38827;53.024;6.596;2022-11-20T09:17:07;2.60;66.00
52963;DHT22;38827;53.024;6.596;2022-11-20T09:19:33;2.70;65.60
52963;DHT22;38827;53.024;6.596;2022-11-20T09:22:01;2.70;65.70
52963;DHT22;38827;53.024;6.596;2022-11-20T09:24:27;2.70;65.40
52963;DHT22;38827;53.024;6.596;2022-11-20T09:26:56;2.70;65.40
52963;DHT22;38827;53.024;6.596;2022-11-20T09:29:22;2.70;65.30
52963;DHT22;38827;53.024;6.596;2022-11-20T09:31:47;2.70;65.10
52963;DHT22;38827;53.024;6.596;2022-11-20T09:34:13;2.80;65.40
52963;DHT22;38827;53.024;6.596;2022-11-20T09:36:38;2.80;65.50
52963;DHT22;38827;53.024;6.596;2022-11-20T09:39:04;2.90;65.30
52963;DHT22;38827;53.024;6.596;2022-11-20T09:55:29;3.10;64.20
52963;DHT22;38827;53.024;6.596;2022-11-20T09:57:57;3.20;64.50
52963;DHT22;38827;53.024;6.596;2022-11-20T10:00:23;3.20;64.20
52963;DHT22;38827;53.024;6.596;2022-11-20T10:05:59;3.20;63.50
52963;DHT22;38827;53.024;6.596;2022-11-20T10:11:27;3.20;62.80
52963;DHT22;38827;53.024;6.596;2022-11-20T10:16:36;3.20;63.00
52963;DHT22;38827;53.024;6.596;2022-11-20T10:19:20;3.20;62.00
52963;DHT22;38827;53.024;6.596;2022-11-20T10:29:47;3.60;62.10
52963;DHT22;38827;53.024;6.596;2022-11-20T10:32:18;3.60;60.40
52963;DHT22;38827;53.024;6.596;2022-11-20T10:34:58;3.70;61.90
52963;DHT22;38827;53.024;6.596;2022-11-20T10:37:26;3.80;61.30
52963;DHT22;38827;53.024;6.596;2022-11-20T10:40:19;3.90;61.30
52963;DHT22;38827;53.024;6.596;2022-11-20T10:43:16;4.00;60.60
52963;DHT22;38827;53.024;6.596;2022-11-20T10:45:59;4.00;59.70
52963;DHT22;38827;53.024;6.596;2022-11-20T10:48:27;4.10;60.10
52963;DHT22;38827;53.024;6.596;2022-11-20T11:06:43;4.20;59.80
52963;DHT22;38827;53.024;6.596;2022-11-20T11:09:41;4.10;60.10
52963;DHT22;38827;53.024;6.596;2022-11-20T11:12:49;4.10;59.80
52963;DHT22;38827;53.024;6.596;2022-11-20T11:15:51;4.00;60.00
52963;DHT22;38827;53.024;6.596;2022-11-20T11:33:20;4.10;60.10
52963;DHT22;38827;53.024;6.596;2022-11-20T11:35:53;4.10;60.10
52963;DHT22;38827;53.024;6.596;2022-11-20T11:38:42;4.20;60.00
52963;DHT22;38827;53.024;6.596;2022-11-20T11:41:20;4.20;59.70
52963;DHT22;38827;53.024;6.596;2022-11-20T11:49:33;4.20;59.70
52963;DHT22;38827;53.024;6.596;2022-11-20T11:52:24;4.20;59.00
52963;DHT22;38827;53.024;6.596;2022-11-20T12:06:15;4.30;58.80
52963;DHT22;38827;53.024;6.596;2022-11-20T12:18:18;4.70;57.00
52963;DHT22;38827;53.024;6.596;2022-11-20T12:29:56;5.10;56.10
52963;DHT22;38827;53.024;6.596;2022-11-20T12:32:31;5.20;56.20
52963;DHT22;38827;53.024;6.596;2022-11-20T12:41:09;5.10;56.10
52963;DHT22;38827;53.024;6.596;2022-11-20T12:43:34;5.00;56.30
52963;DHT22;38827;53.024;6.596;2022-11-20T12:46:47;4.90;56.70
52963;DHT22;38827;53.024;6.596;2022-11-20T12:52:34;5.00;56.80
52963;DHT22;38827;53.024;6.596;2022-11-20T12:58:04;5.10;57.10
52963;DHT22;38827;53.024;6.596;2022-11-20T13:00:43;5.20;56.90
52963;DHT22;38827;53.024;6.596;2022-11-20T13:03:34;5.40;56.70
52963;DHT22;38827;53.024;6.596;2022-11-20T13:06:17;5.50;56.30
52963;DHT22;38827;53.024;6.596;2022-11-20T13:08:49;5.60;55.90
52963;DHT22;38827;53.024;6.596;2022-11-20T13:11:37;5.70;56.10
52963;DHT22;38827;53.024;6.596;2022-11-20T13:14:36;5.80;56.00
52963;DHT22;38827;53.024;6.596;2022-11-20T13:17:28;5.80;55.60
52963;DHT22;38827;53.024;6.596;2022-11-20T13:19:57;5.80;55.10
52963;DHT22;38827;53.024;6.596;2022-11-20T13:22:48;5.70;55.80
52963;DHT22;38827;53.024;6.596;2022-11-20T13:25:24;5.70;55.40
52963;DHT22;38827;53.024;6.596;2022-11-20T13:27:50;5.60;55.10
52963;DHT22;38827;53.024;6.596;2022-11-20T13:30:18;5.50;54.50
52963;DHT22;38827;53.024;6.596;2022-11-20T13:33:08;5.50;55.70
52963;DHT22;38827;53.024;6.596;2022-11-20T13:35:42;5.50;53.30
52963;DHT22;38827;53.024;6.596;2022-11-20T13:38:10;5.50;54.30
52963;DHT22;38827;53.024;6.596;2022-11-20T13:40:38;5.50;53.90
52963;DHT22;38827;53.024;6.596;2022-11-20T13:45:34;5.40;53.10
52963;DHT22;38827;53.024;6.596;2022-11-20T14:00:24;5.20;53.60
52963;DHT22;38827;53.024;6.596;2022-11-20T14:03:02;5.10;54.10
52963;DHT22;38827;53.024;6.596;2022-11-20T14:05:40;5.10;53.80
52963;DHT22;38827;53.024;6.596;2022-11-20T14:08:21;5.00;54.00
52963;DHT22;38827;53.024;6.596;2022-11-20T14:10:48;4.90;54.10
52963;DHT22;38827;53.024;6.596;2022-11-20T14:13:18;4.80;54.00
52963;DHT22;38827;53.024;6.596;2022-11-20T14:15:45;4.80;54.10
52963;DHT22;38827;53.024;6.596;2022-11-20T14:18:19;4.70;54.20
52963;DHT22;38827;53.024;6.596;2022-11-20T14:20:47;4.70;54.40
52963;DHT22;38827;53.024;6.596;2022-11-20T14:23:22;4.60;54.40
52963;DHT22;38827;53.024;6.596;2022-11-20T14:25:48;4.60;54.70
52963;DHT22;38827;53.024;6.596;2022-11-20T14:28:25;4.50;55.00
52963;DHT22;38827;53.024;6.596;2022-11-20T14:30:54;4.50;55.20
52963;DHT22;38827;53.024;6.596;2022-11-20T14:33:21;4.50;55.50
52963;DHT22;38827;53.024;6.596;2022-11-20T14:35:55;4.40;55.70
52963;DHT22;38827;53.024;6.596;2022-11-20T14:38:25;4.30;55.90
52963;DHT22;38827;53.024;6.596;2022-11-20T14:40:51;4.30;56.10
52963;DHT22;38827;53.024;6.596;2022-11-20T14:43:25;4.20;56.30
52963;DHT22;38827;53.024;6.596;2022-11-20T14:46:03;4.20;56.10
52963;DHT22;38827;53.024;6.596;2022-11-20T14:48:47;4.20;56.30
52963;DHT22;38827;53.024;6.596;2022-11-20T14:55:13;4.10;56.90
52963;DHT22;38827;53.024;6.596;2022-11-20T14:58:38;4.00;57.30
52963;DHT22;38827;53.024;6.596;2022-11-20T15:05:01;3.90;58.10
52963;DHT22;38827;53.024;6.596;2022-11-20T15:13:45;3.70;59.30
52963;DHT22;38827;53.024;6.596;2022-11-20T15:16:23;3.60;59.50
52963;DHT22;38827;53.024;6.596;2022-11-20T15:21:38;3.50;59.80
52963;DHT22;38827;53.024;6.596;2022-11-20T15:24:46;3.50;60.00
52963;DHT22;38827;53.024;6.596;2022-11-20T15:27:31;3.50;60.00
52963;DHT22;38827;53.024;6.596;2022-11-20T15:30:17;3.50;60.20
52963;DHT22;38827;53.024;6.596;2022-11-20T15:33:01;3.50;60.50
52963;DHT22;38827;53.024;6.596;2022-11-20T15:35:33;3.40;60.80
52963;DHT22;38827;53.024;6.596;2022-11-20T15:38:02;3.40;61.10
52963;DHT22;38827;53.024;6.596;2022-11-20T15:42:59;3.40;61.30
52963;DHT22;38827;53.024;6.596;2022-11-20T15:45:37;3.40;61.40
52963;DHT22;38827;53.024;6.596;2022-11-20T15:48:04;3.40;61.40
52963;DHT22;38827;53.024;6.596;2022-11-20T15:50:37;3.30;61.50
52963;DHT22;38827;53.024;6.596;2022-11-20T15:53:04;3.30;61.80
52963;DHT22;38827;53.024;6.596;2022-11-20T15:55:32;3.20;62.00
52963;DHT22;38827;53.024;6.596;2022-11-20T15:57:58;3.20;62.50
52963;DHT22;38827;53.024;6.596;2022-11-20T16:00:26;3.10;62.70
52963;DHT22;38827;53.024;6.596;2022-11-20T16:02:52;3.10;63.00
52963;DHT22;38827;53.024;6.596;2022-11-20T16:05:20;3.00;63.20
52963;DHT22;38827;53.024;6.596;2022-11-20T16:07:48;3.00;63.50
52963;DHT22;38827;53.024;6.596;2022-11-20T16:10:15;3.00;63.80
52963;DHT22;38827;53.024;6.596;2022-11-20T16:12:41;2.90;64.10
52963;DHT22;38827;53.024;6.596;2022-11-20T16:15:25;2.90;64.30
52963;DHT22;38827;53.024;6.596;2022-11-20T16:18:10;2.90;64.50
52963;DHT22;38827;53.024;6.596;2022-11-20T16:20:36;2.90;64.70
52963;DHT22;38827;53.024;6.596;2022-11-20T16:23:03;2.90;65.00
52963;DHT22;38827;53.024;6.596;2022-11-20T16:25:31;2.90;65.20
52963;DHT22;38827;53.024;6.596;2022-11-20T16:27:56;2.90;65.30
52963;DHT22;38827;53.024;6.596;2022-11-20T16:30:22;2.90;65.40
52963;DHT22;38827;53.024;6.596;2022-11-20T16:32:48;2.90;65.60
52963;DHT22;38827;53.024;6.596;2022-11-20T16:35:14;2.90;65.80
52963;DHT22;38827;53.024;6.596;2022-11-20T16:37:40;2.90;65.80
52963;DHT22;38827;53.024;6.596;2022-11-20T16:40:06;2.90;65.90
52963;DHT22;38827;53.024;6.596;2022-11-20T16:42:35;2.90;66.00
52963;DHT22;38827;53.024;6.596;2022-11-20T16:45:02;2.90;66.20
52963;DHT22;38827;53.024;6.596;2022-11-20T16:47:34;2.90;66.10
52963;DHT22;38827;53.024;6.596;2022-11-20T16:50:04;2.90;66.20
52963;DHT22;38827;53.024;6.596;2022-11-20T16:52:31;2.90;66.10
52963;DHT22;38827;53.024;6.596;2022-11-20T16:54:57;2.90;66.20
52963;DHT22;38827;53.024;6.596;2022-11-20T16:57:30;2.80;66.40
52963;DHT22;38827;53.024;6.596;2022-11-20T16:59:57;2.80;66.50
52963;DHT22;38827;53.024;6.596;2022-11-20T17:02:22;2.80;66.50
52963;DHT22;38827;53.024;6.596;2022-11-20T17:04:48;2.80;66.80
52963;DHT22;38827;53.024;6.596;2022-11-20T17:07:14;2.90;66.80
52963;DHT22;38827;53.024;6.596;2022-11-20T17:09:40;2.90;66.90
52963;DHT22;38827;53.024;6.596;2022-11-20T17:12:05;2.90;67.00
52963;DHT22;38827;53.024;6.596;2022-11-20T17:14:31;2.90;67.10
52963;DHT22;38827;53.024;6.596;2022-11-20T17:16:57;2.90;67.30
52963;DHT22;38827;53.024;6.596;2022-11-20T17:43:57;2.60;68.10
52963;DHT22;38827;53.024;6.596;2022-11-20T17:46:24;2.60;68.30
52963;DHT22;38827;53.024;6.596;2022-11-20T17:48:50;2.60;68.30
52963;DHT22;38827;53.024;6.596;2022-11-20T17:51:19;2.50;68.40
52963;DHT22;38827;53.024;6.596;2022-11-20T17:53:51;2.50;68.60
52963;DHT22;38827;53.024;6.596;2022-11-20T17:56:17;2.50;68.70
52963;DHT22;38827;53.024;6.596;2022-11-20T17:59:09;2.50;68.80
52963;DHT22;38827;53.024;6.596;2022-11-20T18:01:36;2.50;68.90
52963;DHT22;38827;53.024;6.596;2022-11-20T18:04:02;2.50;68.90
52963;DHT22;38827;53.024;6.596;2022-11-20T18:06:31;2.50;69.20
52963;DHT22;38827;53.024;6.596;2022-11-20T18:08:58;2.50;69.30
52963;DHT22;38827;53.024;6.596;2022-11-20T18:11:27;2.50;69.40
52963;DHT22;38827;53.024;6.596;2022-11-20T18:13:55;2.50;69.40
52963;DHT22;38827;53.024;6.596;2022-11-20T18:19:15;2.50;69.70
52963;DHT22;38827;53.024;6.596;2022-11-20T18:22:00;2.50;70.00
52963;DHT22;38827;53.024;6.596;2022-11-20T18:25:16;2.50;69.70
52963;DHT22;38827;53.024;6.596;2022-11-20T18:27:52;2.50;69.80
52963;DHT22;38827;53.024;6.596;2022-11-20T18:30:27;2.50;69.90
52963;DHT22;38827;53.024;6.596;2022-11-20T18:32:53;2.50;69.80
52963;DHT22;38827;53.024;6.596;2022-11-20T18:39:04;2.50;70.00
52963;DHT22;38827;53.024;6.596;2022-11-20T18:41:40;2.50;70.10
52963;DHT22;38827;53.024;6.596;2022-11-20T18:44:49;2.50;70.20
52963;DHT22;38827;53.024;6.596;2022-11-20T18:50:30;2.50;70.50
52963;DHT22;38827;53.024;6.596;2022-11-20T18:55:44;2.50;70.60
52963;DHT22;38827;53.024;6.596;2022-11-20T18:58:13;2.60;70.80
52963;DHT22;38827;53.024;6.596;2022-11-20T19:00:41;2.60;70.90
52963;DHT22;38827;53.024;6.596;2022-11-20T19:03:06;2.60;71.00
52963;DHT22;38827;53.024;6.596;2022-11-20T19:05:35;2.70;71.00
52963;DHT22;38827;53.024;6.596;2022-11-20T19:08:04;2.60;71.00
52963;DHT22;38827;53.024;6.596;2022-11-20T19:10:31;2.70;71.00
52963;DHT22;38827;53.024;6.596;2022-11-20T19:12:56;2.70;71.20
52963;DHT22;38827;53.024;6.596;2022-11-20T19:25:01;2.70;71.20
52963;DHT22;38827;53.024;6.596;2022-11-20T19:27:27;2.70;71.40
52963;DHT22;38827;53.024;6.596;2022-11-20T19:29:55;2.70;71.40
52963;DHT22;38827;53.024;6.596;2022-11-20T19:32:27;2.70;71.40
52963;DHT22;38827;53.024;6.596;2022-11-20T19:34:52;2.70;71.40
52963;DHT22;38827;53.024;6.596;2022-11-20T19:37:18;2.70;71.40
52963;DHT22;38827;53.024;6.596;2022-11-20T19:39:44;2.70;71.30
52963;DHT22;38827;53.024;6.596;2022-11-20T19:42:13;2.70;71.40
52963;DHT22;38827;53.024;6.596;2022-11-20T19:44:39;2.80;71.40
52963;DHT22;38827;53.024;6.596;2022-11-20T19:47:04;2.80;71.40
52963;DHT22;38827;53.024;6.596;2022-11-20T19:49:31;2.80;71.50
52963;DHT22;38827;53.024;6.596;2022-11-20T19:51:57;2.80;71.50
52963;DHT22;38827;53.024;6.596;2022-11-20T19:54:24;2.90;71.40
52963;DHT22;38827;53.024;6.596;2022-11-20T19:56:50;2.80;71.40
52963;DHT22;38827;53.024;6.596;2022-11-20T19:59:16;2.80;71.30
52963;DHT22;38827;53.024;6.596;2022-11-20T20:01:42;2.80;71.50
52963;DHT22;38827;53.024;6.596;2022-11-20T20:04:09;2.90;71.40
52963;DHT22;38827;53.024;6.596;2022-11-20T20:06:36;2.80;71.40
52963;DHT22;38827;53.024;6.596;2022-11-20T20:14:22;2.80;71.50
52963;DHT22;38827;53.024;6.596;2022-11-20T20:16:48;2.80;71.50
52963;DHT22;38827;53.024;6.596;2022-11-20T20:19:14;2.80;71.70
52963;DHT22;38827;53.024;6.596;2022-11-20T20:21:40;2.80;71.60
52963;DHT22;38827;53.024;6.596;2022-11-20T20:24:11;2.80;71.60
52963;DHT22;38827;53.024;6.596;2022-11-20T20:26:37;2.80;71.90
52963;DHT22;38827;53.024;6.596;2022-11-20T20:29:03;2.80;72.00
52963;DHT22;38827;53.024;6.596;2022-11-20T20:31:35;2.80;72.00
52963;DHT22;38827;53.024;6.596;2022-11-20T20:34:01;2.90;72.20
52963;DHT22;38827;53.024;6.596;2022-11-20T20:42:13;2.90;72.10
52963;DHT22;38827;53.024;6.596;2022-11-20T20:45:01;2.90;72.00
52963;DHT22;38827;53.024;6.596;2022-11-20T20:48:29;3.00;71.90
52963;DHT22;38827;53.024;6.596;2022-11-20T21:29:06;2.80;71.90
52963;DHT22;38827;53.024;6.596;2022-11-20T21:36:01;2.70;71.80
52963;DHT22;38827;53.024;6.596;2022-11-20T21:42:49;2.70;71.80
52963;DHT22;38827;53.024;6.596;2022-11-20T21:48:54;2.70;71.80
52963;DHT22;38827;53.024;6.596;2022-11-20T21:51:23;2.70;71.90
52963;DHT22;38827;53.024;6.596;2022-11-20T22:12:06;2.70;72.00
52963;DHT22;38827;53.024;6.596;2022-11-20T22:17:20;2.80;72.00